createdAt,value
2023-04-14T00:02:43.176Z,1.60
2023-04-14T00:05:33.229Z,1.05
2023-04-14T00:08:18.470Z,1.42
2023-04-14T00:11:04.250Z,1.45
2023-04-14T00:13:49.638Z,1.10
2023-04-14T00:16:35.436Z,1.13
2023-04-14T00:19:21.123Z,1.20
2023-04-14T00:22:06.678Z,1.00
2023-04-14T00:24:52.275Z,1.35
2023-04-14T00:27:38.647Z,1.05
2023-04-14T00:30:24.388Z,1.70
2023-04-14T00:33:09.901Z,1.35
2023-04-14T00:35:56.534Z,1.13
2023-04-14T00:38:42.050Z,0.90
2023-04-14T00:41:32.463Z,0.90
2023-04-14T00:44:17.823Z,1.20
2023-04-14T00:47:03.939Z,1.05
2023-04-14T00:49:49.824Z,1.00
2023-04-14T00:52:37.647Z,1.10
2023-04-14T00:55:23.293Z,1.15
2023-04-14T00:58:09.592Z,1.10
2023-04-14T01:00:56.042Z,0.70
2023-04-14T01:03:41.889Z,1.00
2023-04-14T01:06:28.105Z,1.10
2023-04-14T01:09:14.149Z,1.20
2023-04-14T01:12:37.121Z,1.10
2023-04-14T01:15:28.404Z,1.20
2023-04-14T01:18:29.541Z,1.33
2023-04-14T01:21:22.871Z,1.20
2023-04-14T01:24:35.313Z,1.75
2023-04-14T01:27:57.195Z,1.88
2023-04-14T01:30:51.146Z,2.40
2023-04-14T01:33:40.774Z,2.10
2023-04-14T01:36:40.411Z,1.83
2023-04-14T01:39:34.805Z,2.08
2023-04-14T01:42:26.421Z,2.17
2023-04-14T01:45:27.618Z,2.53
2023-04-14T01:48:13.834Z,2.25
2023-04-14T01:51:00.852Z,2.15
2023-04-14T01:53:48.348Z,2.13
2023-04-14T01:56:35.812Z,1.80
2023-04-14T01:59:22.528Z,1.90
2023-04-14T02:02:09.883Z,1.98
2023-04-14T02:04:57.636Z,1.77
2023-04-14T02:07:45.803Z,2.00
2023-04-14T02:10:33.955Z,1.75
2023-04-14T02:13:23.931Z,2.13
2023-04-14T02:16:11.357Z,2.35
2023-04-14T02:19:00.388Z,2.20
2023-04-14T02:21:49.364Z,2.25
2023-04-14T02:24:34.873Z,2.25
2023-04-14T02:27:56.211Z,2.38
2023-04-14T02:30:44.453Z,2.42
2023-04-14T02:33:36.660Z,2.42
2023-04-14T02:36:32.435Z,2.40
2023-04-14T02:39:21.905Z,2.53
2023-04-14T02:42:13.818Z,2.35
2023-04-14T02:45:12.040Z,2.33
2023-04-14T02:48:01.448Z,2.08
2023-04-14T02:50:52.870Z,1.98
2023-04-14T02:53:41.717Z,1.92
2023-04-14T02:56:37.858Z,1.95
2023-04-14T02:59:25.639Z,2.50
2023-04-14T03:02:17.892Z,2.10
2023-04-14T03:05:09.443Z,2.17
2023-04-14T03:08:05.041Z,2.30
2023-04-14T03:10:53.186Z,2.30
2023-04-14T03:13:43.546Z,2.20
2023-04-14T03:16:30.330Z,2.45
2023-04-14T03:19:17.730Z,2.08
2023-04-14T03:22:04.751Z,2.35
2023-04-14T03:24:50.835Z,2.22
2023-04-14T03:27:38.105Z,2.30
2023-04-14T03:30:25.856Z,2.38
2023-04-14T03:33:13.621Z,2.20
2023-04-14T03:36:01.485Z,2.50
2023-04-14T03:38:49.818Z,2.35
2023-04-14T03:41:37.741Z,2.25
2023-04-14T03:44:26.200Z,2.08
2023-04-14T03:47:12.283Z,2.80
2023-04-14T03:50:01.297Z,2.75
2023-04-14T03:52:50.707Z,3.08
2023-04-14T03:55:37.529Z,2.22
2023-04-14T03:58:24.101Z,2.50
2023-04-14T04:01:11.884Z,2.63
2023-04-14T04:04:00.782Z,2.40
2023-04-14T04:06:46.486Z,2.47
2023-04-14T04:09:34.786Z,2.95
2023-04-14T04:12:22.617Z,2.58
2023-04-14T04:15:08.962Z,2.85
2023-04-14T04:17:58.275Z,2.72
2023-04-14T04:20:44.398Z,3.28
2023-04-14T04:23:32.873Z,3.03
2023-04-14T04:26:19.389Z,2.97
2023-04-14T04:29:06.810Z,2.70
2023-04-14T04:31:55.191Z,3.03
2023-04-14T04:34:42.299Z,2.67
2023-04-14T04:37:28.820Z,3.20
2023-04-14T04:40:15.052Z,3.42
2023-04-14T04:43:00.830Z,4.10
2023-04-14T04:45:52.238Z,4.50
2023-04-14T04:48:37.737Z,4.40
2023-04-14T04:51:24.278Z,4.68
2023-04-14T04:54:09.804Z,4.63
2023-04-14T04:56:57.483Z,4.00
2023-04-14T04:59:42.663Z,3.72
2023-04-14T05:02:28.231Z,4.85
2023-04-14T05:05:13.400Z,5.35
2023-04-14T05:07:58.933Z,4.63
2023-04-14T05:10:44.521Z,4.95
2023-04-14T05:13:29.770Z,4.65
2023-04-14T05:16:15.377Z,5.05
2023-04-14T05:19:01.211Z,4.93
2023-04-14T05:21:46.629Z,4.72
2023-04-14T05:24:32.130Z,5.05
2023-04-14T05:27:17.454Z,4.75
2023-04-14T05:30:03.296Z,4.82
2023-04-14T05:32:48.658Z,4.72
2023-04-14T05:35:33.909Z,5.18
2023-04-14T05:38:20.229Z,4.47
2023-04-14T05:41:06.190Z,5.07
2023-04-14T05:43:51.568Z,4.72
2023-04-14T05:46:36.960Z,4.90
2023-04-14T05:49:22.486Z,4.10
2023-04-14T05:52:07.752Z,5.03
2023-04-14T05:54:53.092Z,4.50
2023-04-14T05:57:38.636Z,4.43
2023-04-14T06:00:25.122Z,4.00
2023-04-14T06:03:10.719Z,4.70
2023-04-14T06:05:57.035Z,4.30
2023-04-14T06:08:42.464Z,4.10
2023-04-14T06:11:27.958Z,4.03
2023-04-14T06:14:13.450Z,4.03
2023-04-14T06:16:58.985Z,3.33
2023-04-14T06:19:46.691Z,3.17
2023-04-14T06:22:32.515Z,3.40
2023-04-14T06:25:17.938Z,3.42
2023-04-14T06:28:03.575Z,3.33
2023-04-14T06:30:49.117Z,3.15
2023-04-14T06:33:34.662Z,2.97
2023-04-14T06:36:19.999Z,3.22
2023-04-14T06:39:05.864Z,3.00
2023-04-14T06:41:51.447Z,3.40
2023-04-14T06:44:36.580Z,3.50
2023-04-14T06:47:22.104Z,3.20
2023-04-14T06:50:07.850Z,2.70
2023-04-14T06:52:53.085Z,3.10
2023-04-14T06:55:41.637Z,3.20
2023-04-14T06:58:30.419Z,3.30
2023-04-14T07:01:16.118Z,3.50
2023-04-14T07:04:06.892Z,3.88
2023-04-14T07:06:52.835Z,4.35
2023-04-14T07:09:38.426Z,5.50
2023-04-14T07:12:23.835Z,6.38
2023-04-14T07:15:09.853Z,6.20
2023-04-14T07:17:56.337Z,6.50
2023-04-14T07:20:43.434Z,6.00
2023-04-14T07:23:28.859Z,5.38
2023-04-14T07:26:14.427Z,4.93
2023-04-14T07:28:59.779Z,4.82
2023-04-14T07:31:45.117Z,4.78
2023-04-14T07:34:33.025Z,4.32
2023-04-14T07:37:19.244Z,4.28
2023-04-14T07:40:04.821Z,3.83
2023-04-14T07:42:50.045Z,3.28
2023-04-14T07:45:35.661Z,3.08
2023-04-14T07:48:21.891Z,2.53
2023-04-14T07:51:07.714Z,3.13
2023-04-14T07:53:53.230Z,2.70
2023-04-14T07:56:38.738Z,2.25
2023-04-14T07:59:24.492Z,2.25
2023-04-14T08:02:10.392Z,2.38
2023-04-14T08:04:56.095Z,2.22
2023-04-14T08:07:41.876Z,2.20
2023-04-14T08:10:26.924Z,2.35
2023-04-14T08:13:12.237Z,1.80
2023-04-14T08:15:58.114Z,1.80
2023-04-14T08:18:43.559Z,1.90
2023-04-14T08:21:29.048Z,1.60
2023-04-14T08:24:14.497Z,1.73
2023-04-14T08:27:01.836Z,1.70
2023-04-14T08:29:47.117Z,1.77
2023-04-14T08:32:33.699Z,2.33
2023-04-14T08:35:35.483Z,1.90
2023-04-14T08:38:22.496Z,1.63
2023-04-14T08:41:09.380Z,1.83
2023-04-14T08:43:54.860Z,1.70
2023-04-14T08:46:42.851Z,2.00
2023-04-14T08:49:48.984Z,1.55
2023-04-14T08:52:40.287Z,1.33
2023-04-14T08:55:25.856Z,1.70
2023-04-14T08:58:11.457Z,1.70
2023-04-14T09:00:57.671Z,1.33
2023-04-14T09:03:43.911Z,1.80
2023-04-14T09:06:29.938Z,1.30
2023-04-14T09:09:15.777Z,1.75
2023-04-14T09:12:03.097Z,1.10
2023-04-14T09:14:50.298Z,1.20
2023-04-14T09:17:36.702Z,1.23
2023-04-14T09:20:38.964Z,1.70
2023-04-14T09:23:26.348Z,1.88
2023-04-14T09:26:11.878Z,1.33
2023-04-14T09:28:57.095Z,1.48
2023-04-14T09:31:44.721Z,1.35
2023-04-14T09:34:30.277Z,1.60
2023-04-14T09:37:16.229Z,1.38
2023-04-14T09:40:01.408Z,1.40
2023-04-14T09:42:47.031Z,1.23
2023-04-14T09:45:45.288Z,1.40
2023-04-14T09:48:30.353Z,1.10
2023-04-14T09:51:16.219Z,1.17
2023-04-14T09:54:03.473Z,1.00
2023-04-14T09:56:49.370Z,1.35
2023-04-14T09:59:37.156Z,1.40
2023-04-14T10:02:23.000Z,1.02
2023-04-14T10:05:08.830Z,1.08
2023-04-14T10:07:55.085Z,1.00
2023-04-14T10:10:40.221Z,1.30
2023-04-14T10:13:25.412Z,1.20
2023-04-14T10:16:11.161Z,1.17
2023-04-14T10:18:59.933Z,0.98
2023-04-14T10:21:45.482Z,0.90
2023-04-14T10:24:31.755Z,1.20
2023-04-14T10:27:17.040Z,0.98
2023-04-14T10:30:04.811Z,1.20
2023-04-14T10:32:50.102Z,1.13
2023-04-14T10:35:48.291Z,0.93
2023-04-14T10:38:42.423Z,0.90
2023-04-14T10:41:28.681Z,1.17
2023-04-14T10:44:32.062Z,1.30
2023-04-14T10:47:24.933Z,1.20
2023-04-14T10:50:15.331Z,1.60
2023-04-14T10:53:07.090Z,1.48
2023-04-14T10:55:55.932Z,1.33
2023-04-14T10:58:41.362Z,1.50
2023-04-14T11:01:32.377Z,1.30
2023-04-14T11:04:21.222Z,1.30
2023-04-14T11:07:09.831Z,1.17
2023-04-14T11:10:18.861Z,1.00
2023-04-14T11:13:07.317Z,1.42
2023-04-14T11:16:01.212Z,0.98
2023-04-14T11:18:47.941Z,1.17
2023-04-14T11:21:33.334Z,1.30
2023-04-14T11:24:18.938Z,1.27
2023-04-14T11:27:04.827Z,0.80
2023-04-14T11:29:51.229Z,1.20
2023-04-14T11:32:57.706Z,0.90
2023-04-14T11:35:43.299Z,1.38
2023-04-14T11:38:29.792Z,1.10
2023-04-14T11:41:16.309Z,1.30
2023-04-14T11:44:02.009Z,1.95
2023-04-14T11:46:47.518Z,0.90
2023-04-14T11:49:34.987Z,1.20
2023-04-14T11:52:20.993Z,1.40
2023-04-14T11:55:06.930Z,1.38
2023-04-14T11:57:52.639Z,1.30
2023-04-14T12:00:38.587Z,0.90
2023-04-14T12:03:29.396Z,0.90
2023-04-14T12:06:15.498Z,1.25
2023-04-14T12:09:03.775Z,1.05
2023-04-14T12:11:55.583Z,1.10
2023-04-14T12:14:46.736Z,1.20
2023-04-14T12:17:32.199Z,1.10
2023-04-14T12:20:18.582Z,0.93
2023-04-14T12:23:04.913Z,0.90
2023-04-14T12:25:50.582Z,0.70
2023-04-14T12:28:37.154Z,0.93
2023-04-14T12:31:30.488Z,1.02
2023-04-14T12:34:18.100Z,1.55
2023-04-14T12:37:10.817Z,1.00
2023-04-14T12:40:01.233Z,1.00
2023-04-14T12:42:49.074Z,0.90
2023-04-14T12:45:45.932Z,0.90
2023-04-14T12:48:48.273Z,1.20
2023-04-14T12:51:39.529Z,1.27
2023-04-14T12:54:24.775Z,1.10
2023-04-14T12:57:10.178Z,1.00
2023-04-14T12:59:55.517Z,0.98
2023-04-14T13:02:44.033Z,0.90
2023-04-14T13:05:30.307Z,1.13
2023-04-14T13:08:15.606Z,0.80
2023-04-14T13:11:01.263Z,0.93
2023-04-14T13:13:47.245Z,0.80
2023-04-14T13:16:33.333Z,0.90
2023-04-14T13:19:18.885Z,1.10
2023-04-14T13:22:04.227Z,1.23
2023-04-14T13:24:50.170Z,1.10
2023-04-14T13:27:35.665Z,1.00
2023-04-14T13:30:21.415Z,1.20
2023-04-14T13:33:06.790Z,1.00
2023-04-14T13:35:52.836Z,1.10
2023-04-14T13:38:38.139Z,1.10
2023-04-14T13:41:24.531Z,0.90
2023-04-14T13:44:09.940Z,1.10
2023-04-14T13:46:55.366Z,0.80
2023-04-14T13:49:40.400Z,0.70
2023-04-14T13:52:26.144Z,0.90
2023-04-14T13:55:11.579Z,1.10
2023-04-14T13:57:57.026Z,1.05
2023-04-14T14:00:42.551Z,0.90
2023-04-14T14:03:29.811Z,0.70
2023-04-14T14:06:16.131Z,0.95
2023-04-14T14:09:05.280Z,0.80
2023-04-14T14:11:51.385Z,0.80
2023-04-14T14:14:36.737Z,0.95
2023-04-14T14:17:22.569Z,0.98
2023-04-14T14:20:09.081Z,1.00
2023-04-14T14:22:54.590Z,0.88
2023-04-14T14:25:41.008Z,0.80
2023-04-14T14:28:26.188Z,0.70
2023-04-14T14:31:11.642Z,0.70
2023-04-14T14:33:56.805Z,0.80
2023-04-14T14:36:43.520Z,0.98
2023-04-14T14:39:32.051Z,1.00
2023-04-14T14:42:17.459Z,1.02
2023-04-14T14:45:02.858Z,0.68
2023-04-14T14:47:49.718Z,0.90
2023-04-14T14:50:34.878Z,0.77
2023-04-14T14:53:20.247Z,1.20
2023-04-14T14:56:05.957Z,0.90
2023-04-14T14:58:52.662Z,0.70
2023-04-14T15:01:37.996Z,1.05
2023-04-14T15:04:23.287Z,0.85
2023-04-14T15:07:08.681Z,1.00
2023-04-14T15:09:54.073Z,0.90
2023-04-14T15:12:39.640Z,0.82
2023-04-14T15:15:25.172Z,1.17
2023-04-14T15:18:11.240Z,0.70
2023-04-14T15:20:56.772Z,0.90
2023-04-14T15:23:44.043Z,0.80
2023-04-14T15:26:29.128Z,1.02
2023-04-14T15:29:14.585Z,0.90
2023-04-14T15:32:00.127Z,0.80
2023-04-14T15:34:45.788Z,1.00
2023-04-14T15:37:31.095Z,1.00
2023-04-14T15:40:16.462Z,0.90
2023-04-14T15:43:01.737Z,0.70
2023-04-14T15:45:47.303Z,1.00
2023-04-14T15:48:32.804Z,0.90
2023-04-14T15:51:18.546Z,0.95
2023-04-14T15:54:04.621Z,0.90
2023-04-14T15:56:53.113Z,1.00
2023-04-14T15:59:38.616Z,0.82
2023-04-14T16:02:24.208Z,1.23
2023-04-14T16:05:09.903Z,0.95
2023-04-14T16:07:55.918Z,0.77
2023-04-14T16:10:42.220Z,1.00
2023-04-14T16:13:27.476Z,0.98
2023-04-14T16:16:14.137Z,1.27
2023-04-14T16:18:59.973Z,0.90
2023-04-14T16:21:45.295Z,1.00
2023-04-14T16:24:30.709Z,1.10
2023-04-14T16:27:17.079Z,1.15
2023-04-14T16:30:03.598Z,1.10
2023-04-14T16:32:49.103Z,1.38
2023-04-14T16:35:35.037Z,1.08
2023-04-14T16:38:20.114Z,1.20
2023-04-14T16:41:05.630Z,1.42
2023-04-14T16:43:51.475Z,1.08
2023-04-14T16:46:36.701Z,1.23
2023-04-14T16:49:22.183Z,1.20
2023-04-14T16:52:07.725Z,1.50
2023-04-14T16:54:54.426Z,1.30
2023-04-14T16:57:39.969Z,1.35
2023-04-14T17:00:26.594Z,1.23
2023-04-14T17:03:13.073Z,1.30
2023-04-14T17:05:58.882Z,1.20
2023-04-14T17:08:44.554Z,1.20
2023-04-14T17:11:30.166Z,1.30
2023-04-14T17:14:16.581Z,0.80
2023-04-14T17:17:02.812Z,1.23
2023-04-14T17:19:49.383Z,1.00
2023-04-14T17:22:35.004Z,0.90
2023-04-14T17:25:21.294Z,0.70
2023-04-14T17:28:06.677Z,0.80
2023-04-14T17:30:51.875Z,1.00
2023-04-14T17:33:37.534Z,1.13
2023-04-14T17:36:23.349Z,0.82
2023-04-14T17:39:10.429Z,1.00
2023-04-14T17:41:57.988Z,0.85
2023-04-14T17:44:43.706Z,1.15
2023-04-14T17:47:29.430Z,0.90
2023-04-14T17:50:14.815Z,0.80
2023-04-14T17:52:59.990Z,1.00
2023-04-14T17:55:45.346Z,0.80
2023-04-14T17:58:31.019Z,1.08
2023-04-14T18:01:16.544Z,1.10
2023-04-14T18:04:03.882Z,1.20
2023-04-14T18:06:50.155Z,1.08
2023-04-14T18:09:35.820Z,1.33
2023-04-14T18:12:24.089Z,1.23
2023-04-14T18:15:15.066Z,1.15
2023-04-14T18:18:00.933Z,1.33
2023-04-14T18:20:49.901Z,1.05
2023-04-14T18:23:35.082Z,1.27
2023-04-14T18:29:08.971Z,1.33
2023-04-14T18:31:55.165Z,1.27
2023-04-14T18:34:40.327Z,1.70
2023-04-14T18:37:26.262Z,1.25
2023-04-14T18:40:12.649Z,1.10
2023-04-14T18:42:58.012Z,1.20
2023-04-14T18:45:47.847Z,1.48
2023-04-14T18:48:33.385Z,1.35
2023-04-14T18:51:19.290Z,1.85
2023-04-14T18:54:04.584Z,1.40
2023-04-14T18:56:50.185Z,1.67
2023-04-14T18:59:36.065Z,1.67
2023-04-14T19:02:22.029Z,1.50
2023-04-14T19:05:08.155Z,1.73
2023-04-14T19:07:53.415Z,1.50
2023-04-14T19:10:39.754Z,1.30
2023-04-14T19:13:24.978Z,1.50
2023-04-14T19:16:13.634Z,1.40
2023-04-14T19:18:59.842Z,1.20
2023-04-14T19:21:45.685Z,1.45
2023-04-14T19:24:31.427Z,1.55
2023-04-14T19:27:16.631Z,1.50
2023-04-14T19:30:03.915Z,1.50
2023-04-14T19:32:50.426Z,1.60
2023-04-14T19:35:35.934Z,1.40
2023-04-14T19:38:21.139Z,1.30
2023-04-14T19:41:07.042Z,1.42
2023-04-14T19:43:52.106Z,1.50
2023-04-14T19:46:37.626Z,2.13
2023-04-14T19:49:23.119Z,2.47
2023-04-14T19:52:09.039Z,1.60
2023-04-14T19:54:54.956Z,1.60
2023-04-14T19:57:40.647Z,1.40
2023-04-14T20:00:25.735Z,1.17
2023-04-14T20:03:11.934Z,1.30
2023-04-14T20:05:57.591Z,1.23
2023-04-14T20:08:43.254Z,1.30
2023-04-14T20:11:30.706Z,1.08
2023-04-14T20:14:16.184Z,1.20
2023-04-14T20:17:02.267Z,1.17
2023-04-14T20:19:47.819Z,1.20
2023-04-14T20:22:34.092Z,1.52
2023-04-14T20:25:19.714Z,1.52
2023-04-14T20:28:05.652Z,1.52
2023-04-14T20:30:51.236Z,1.45
2023-04-14T20:33:37.720Z,1.90
2023-04-14T20:36:23.401Z,1.63
2023-04-14T20:39:09.128Z,1.83
2023-04-14T20:41:54.557Z,1.70
2023-04-14T20:44:40.414Z,1.50
2023-04-14T20:47:25.893Z,1.90
2023-04-14T20:50:11.009Z,1.83
2023-04-14T20:52:57.420Z,2.03
2023-04-14T20:55:43.385Z,2.00
2023-04-14T20:58:28.446Z,1.60
2023-04-14T21:01:14.171Z,2.15
2023-04-14T21:03:59.325Z,2.10
2023-04-14T21:06:44.662Z,2.15
2023-04-14T21:09:30.349Z,1.80
2023-04-14T21:12:16.655Z,1.95
2023-04-14T21:15:49.040Z,2.30
2023-04-14T21:18:08.235Z,2.15
2023-04-14T21:20:53.644Z,2.40
2023-04-14T21:23:39.225Z,2.15
2023-04-14T21:26:24.679Z,2.00
2023-04-14T21:29:09.862Z,2.10
2023-04-14T21:31:56.066Z,2.33
2023-04-14T21:34:41.516Z,1.85
2023-04-14T21:37:26.976Z,2.42
2023-04-14T21:40:13.078Z,2.33
2023-04-14T21:42:58.183Z,1.80
2023-04-14T21:45:43.705Z,2.20
2023-04-14T21:48:29.346Z,2.72
2023-04-14T21:51:14.766Z,3.20
2023-04-14T21:53:59.871Z,2.92
2023-04-14T21:56:45.436Z,2.55
2023-04-14T21:59:30.744Z,2.70
2023-04-14T22:02:16.798Z,3.15
2023-04-14T22:05:02.352Z,3.00
2023-04-14T22:07:47.725Z,2.90
2023-04-14T22:10:33.186Z,2.40
2023-04-14T22:13:18.765Z,3.15
2023-04-14T22:16:04.062Z,3.50
2023-04-14T22:18:49.921Z,3.70
2023-04-14T22:21:35.036Z,3.10
2023-04-14T22:24:20.325Z,3.25
2023-04-14T22:27:06.574Z,3.72
2023-04-14T22:29:52.167Z,3.90
2023-04-14T22:32:37.608Z,4.05
2023-04-14T22:35:23.009Z,3.10
2023-04-14T22:38:08.527Z,3.35
2023-04-14T22:40:53.792Z,4.47
2023-04-14T22:43:39.426Z,3.50
2023-04-14T22:46:24.992Z,3.72
2023-04-14T22:49:10.614Z,3.80
2023-04-14T22:51:56.542Z,3.42
2023-04-14T22:54:42.025Z,3.55
2023-04-14T22:57:27.692Z,3.63
2023-04-14T23:00:13.659Z,3.72
2023-04-14T23:02:59.720Z,3.97
2023-04-14T23:05:45.104Z,5.10
2023-04-14T23:08:30.478Z,4.95
2023-04-14T23:11:21.105Z,4.65
2023-04-14T23:14:07.090Z,4.25
2023-04-14T23:16:52.510Z,4.68
2023-04-14T23:19:38.368Z,4.60
2023-04-14T23:22:24.529Z,4.70
2023-04-14T23:25:10.592Z,4.57
2023-04-14T23:27:55.984Z,4.57
2023-04-14T23:30:42.822Z,4.60
2023-04-14T23:33:28.383Z,4.28
2023-04-14T23:36:13.709Z,3.97
2023-04-14T23:38:59.860Z,4.03
2023-04-14T23:41:45.430Z,3.55
2023-04-14T23:44:31.355Z,4.57
2023-04-14T23:47:16.612Z,3.47
2023-04-14T23:50:02.571Z,3.50
2023-04-14T23:52:47.852Z,3.72
2023-04-14T23:55:33.110Z,4.30
2023-04-14T23:58:26.307Z,4.00
